sensor_id;sensor_type;location;lat;lon;timestamp;P1;durP1;ratioP1;P2;durP2;ratioP2
34876;SDS011;21086;44.780;17.194;2022-09-20T00:03:55;7.85;;;4.32;;
34876;SDS011;21086;44.780;17.194;2022-09-20T00:06:25;4.75;;;3.15;;
34876;SDS011;21086;44.780;17.194;2022-09-20T00:08:56;4.72;;;3.40;;
34876;SDS011;21086;44.780;17.194;2022-09-20T00:11:25;6.43;;;3.72;;
34876;SDS011;21086;44.780;17.194;2022-09-20T00:13:55;5.75;;;3.60;;
34876;SDS011;21086;44.780;17.194;2022-09-20T00:16:28;5.13;;;3.35;;
34876;SDS011;21086;44.780;17.194;2022-09-20T00:18:59;5.18;;;2.80;;
34876;SDS011;21086;44.780;17.194;2022-09-20T00:21:29;4.53;;;2.75;;
34876;SDS011;21086;44.780;17.194;2022-09-20T00:23:57;3.05;;;2.00;;
34876;SDS011;21086;44.780;17.194;2022-09-20T00:26:25;4.55;;;2.88;;
34876;SDS011;21086;44.780;17.194;2022-09-20T00:28:53;3.90;;;2.72;;
34876;SDS011;21086;44.780;17.194;2022-09-20T00:31:21;3.63;;;2.10;;
34876;SDS011;21086;44.780;17.194;2022-09-20T00:33:47;6.60;;;3.42;;
34876;SDS011;21086;44.780;17.194;2022-09-20T00:36:33;5.53;;;2.60;;
34876;SDS011;21086;44.780;17.194;2022-09-20T00:39:01;4.13;;;2.65;;
34876;SDS011;21086;44.780;17.194;2022-09-20T00:41:29;4.00;;;2.67;;
34876;SDS011;21086;44.780;17.194;2022-09-20T00:43:57;3.97;;;2.50;;
34876;SDS011;21086;44.780;17.194;2022-09-20T00:48:59;4.38;;;2.38;;
34876;SDS011;21086;44.780;17.194;2022-09-20T00:51:42;3.80;;;1.52;;
34876;SDS011;21086;44.780;17.194;2022-09-20T00:54:12;5.57;;;1.83;;
34876;SDS011;21086;44.780;17.194;2022-09-20T00:56:45;2.88;;;1.95;;
34876;SDS011;21086;44.780;17.194;2022-09-20T00:59:14;4.03;;;1.88;;
34876;SDS011;21086;44.780;17.194;2022-09-20T01:01:47;2.35;;;1.63;;
34876;SDS011;21086;44.780;17.194;2022-09-20T01:04:18;3.35;;;1.73;;
34876;SDS011;21086;44.780;17.194;2022-09-20T01:06:48;2.10;;;1.50;;
34876;SDS011;21086;44.780;17.194;2022-09-20T01:09:18;3.00;;;1.77;;
34876;SDS011;21086;44.780;17.194;2022-09-20T01:11:45;2.22;;;1.63;;
34876;SDS011;21086;44.780;17.194;2022-09-20T01:14:12;2.28;;;1.48;;
34876;SDS011;21086;44.780;17.194;2022-09-20T01:16:41;4.32;;;1.60;;
34876;SDS011;21086;44.780;17.194;2022-09-20T01:19:15;5.40;;;1.45;;
34876;SDS011;21086;44.780;17.194;2022-09-20T01:22:00;2.50;;;1.48;;
34876;SDS011;21086;44.780;17.194;2022-09-20T01:24:37;3.45;;;1.30;;
34876;SDS011;21086;44.780;17.194;2022-09-20T01:30:07;2.22;;;1.35;;
34876;SDS011;21086;44.780;17.194;2022-09-20T01:32:51;1.85;;;1.05;;
34876;SDS011;21086;44.780;17.194;2022-09-20T01:35:25;4.82;;;1.30;;
34876;SDS011;21086;44.780;17.194;2022-09-20T01:43:52;2.13;;;1.33;;
34876;SDS011;21086;44.780;17.194;2022-09-20T01:46:35;2.65;;;0.90;;
34876;SDS011;21086;44.780;17.194;2022-09-20T02:06:02;1.33;;;0.80;;
34876;SDS011;21086;44.780;17.194;2022-09-20T02:14:30;1.50;;;0.90;;
34876;SDS011;21086;44.780;17.194;2022-09-20T02:17:17;1.50;;;0.93;;
34876;SDS011;21086;44.780;17.194;2022-09-20T02:19:53;0.95;;;0.75;;
34876;SDS011;21086;44.780;17.194;2022-09-20T02:28:22;3.05;;;1.05;;
34876;SDS011;21086;44.780;17.194;2022-09-20T02:31:20;1.40;;;0.80;;
34876;SDS011;21086;44.780;17.194;2022-09-20T02:36:55;2.08;;;1.00;;
34876;SDS011;21086;44.780;17.194;2022-09-20T02:39:31;1.27;;;0.85;;
34876;SDS011;21086;44.780;17.194;2022-09-20T02:42:18;2.25;;;1.02;;
34876;SDS011;21086;44.780;17.194;2022-09-20T02:45:03;1.83;;;0.90;;
34876;SDS011;21086;44.780;17.194;2022-09-20T02:47:51;3.05;;;1.60;;
34876;SDS011;21086;44.780;17.194;2022-09-20T02:50:30;2.35;;;1.65;;
34876;SDS011;21086;44.780;17.194;2022-09-20T02:59:00;1.77;;;0.95;;
34876;SDS011;21086;44.780;17.194;2022-09-20T03:01:44;3.55;;;0.90;;
34876;SDS011;21086;44.780;17.194;2022-09-20T03:10:17;3.55;;;1.98;;
34876;SDS011;21086;44.780;17.194;2022-09-20T03:12:59;7.22;;;2.33;;
34876;SDS011;21086;44.780;17.194;2022-09-20T03:16:01;6.10;;;4.07;;
34876;SDS011;21086;44.780;17.194;2022-09-20T03:18:46;6.85;;;2.40;;
34876;SDS011;21086;44.780;17.194;2022-09-20T03:29:50;6.85;;;2.08;;
34876;SDS011;21086;44.780;17.194;2022-09-20T03:46:16;6.13;;;1.65;;
34876;SDS011;21086;44.780;17.194;2022-09-20T04:06:21;1.67;;;1.00;;
34876;SDS011;21086;44.780;17.194;2022-09-20T04:12:05;2.38;;;1.05;;
34876;SDS011;21086;44.780;17.194;2022-09-20T04:14:46;2.63;;;0.98;;
34876;SDS011;21086;44.780;17.194;2022-09-20T04:22:32;1.10;;;0.70;;
34876;SDS011;21086;44.780;17.194;2022-09-20T04:25:14;1.55;;;0.80;;
34876;SDS011;21086;44.780;17.194;2022-09-20T04:27:54;1.92;;;0.80;;
34876;SDS011;21086;44.780;17.194;2022-09-20T04:30:28;2.45;;;1.08;;
34876;SDS011;21086;44.780;17.194;2022-09-20T04:33:06;0.77;;;0.68;;
34876;SDS011;21086;44.780;17.194;2022-09-20T04:35:43;1.45;;;0.70;;
34876;SDS011;21086;44.780;17.194;2022-09-20T04:38:57;1.33;;;0.43;;
34876;SDS011;21086;44.780;17.194;2022-09-20T04:53:43;10.15;;;5.47;;
34876;SDS011;21086;44.780;17.194;2022-09-20T04:56:19;13.70;;;7.85;;
34876;SDS011;21086;44.780;17.194;2022-09-20T04:59:01;15.50;;;8.93;;
34876;SDS011;21086;44.780;17.194;2022-09-20T05:05:07;13.23;;;9.50;;
34876;SDS011;21086;44.780;17.194;2022-09-20T05:14:28;21.55;;;12.85;;
34876;SDS011;21086;44.780;17.194;2022-09-20T05:17:23;19.80;;;12.15;;
34876;SDS011;21086;44.780;17.194;2022-09-20T05:23:11;19.45;;;10.90;;
34876;SDS011;21086;44.780;17.194;2022-09-20T05:25:56;17.33;;;8.95;;
34876;SDS011;21086;44.780;17.194;2022-09-20T05:31:49;11.77;;;7.00;;
34876;SDS011;21086;44.780;17.194;2022-09-20T05:43:12;7.70;;;4.80;;
34876;SDS011;21086;44.780;17.194;2022-09-20T05:54:16;9.00;;;5.50;;
34876;SDS011;21086;44.780;17.194;2022-09-20T05:59:42;9.05;;;6.60;;
34876;SDS011;21086;44.780;17.194;2022-09-20T06:02:17;11.05;;;6.82;;
34876;SDS011;21086;44.780;17.194;2022-09-20T06:05:15;9.40;;;5.30;;
34876;SDS011;21086;44.780;17.194;2022-09-20T06:21:48;3.58;;;1.80;;
34876;SDS011;21086;44.780;17.194;2022-09-20T06:27:03;3.83;;;2.05;;
34876;SDS011;21086;44.780;17.194;2022-09-20T06:29:37;3.60;;;2.47;;
34876;SDS011;21086;44.780;17.194;2022-09-20T06:32:09;3.58;;;2.28;;
34876;SDS011;21086;44.780;17.194;2022-09-20T06:34:36;7.30;;;2.38;;
34876;SDS011;21086;44.780;17.194;2022-09-20T06:37:06;4.47;;;2.15;;
34876;SDS011;21086;44.780;17.194;2022-09-20T06:43:45;3.13;;;1.80;;
34876;SDS011;21086;44.780;17.194;2022-09-20T06:46:13;3.00;;;1.70;;
34876;SDS011;21086;44.780;17.194;2022-09-20T06:48:41;2.90;;;1.92;;
34876;SDS011;21086;44.780;17.194;2022-09-20T06:51:08;5.95;;;2.00;;
34876;SDS011;21086;44.780;17.194;2022-09-20T06:53:36;2.85;;;1.50;;
34876;SDS011;21086;44.780;17.194;2022-09-20T06:56:11;4.80;;;2.13;;
34876;SDS011;21086;44.780;17.194;2022-09-20T06:58:44;2.28;;;1.70;;
34876;SDS011;21086;44.780;17.194;2022-09-20T07:01:11;2.53;;;1.75;;
34876;SDS011;21086;44.780;17.194;2022-09-20T07:03:39;3.53;;;1.92;;
34876;SDS011;21086;44.780;17.194;2022-09-20T07:06:08;5.25;;;1.80;;
34876;SDS011;21086;44.780;17.194;2022-09-20T07:08:35;2.97;;;1.77;;
34876;SDS011;21086;44.780;17.194;2022-09-20T07:11:02;2.28;;;1.48;;
34876;SDS011;21086;44.780;17.194;2022-09-20T07:13:35;2.80;;;1.48;;
34876;SDS011;21086;44.780;17.194;2022-09-20T07:16:02;2.67;;;1.27;;
34876;SDS011;21086;44.780;17.194;2022-09-20T07:18:31;1.70;;;1.30;;
34876;SDS011;21086;44.780;17.194;2022-09-20T07:21:01;6.57;;;1.40;;
34876;SDS011;21086;44.780;17.194;2022-09-20T07:23:28;4.22;;;1.67;;
34876;SDS011;21086;44.780;17.194;2022-09-20T07:25:56;5.05;;;1.90;;
34876;SDS011;21086;44.780;17.194;2022-09-20T07:28:27;7.82;;;1.52;;
34876;SDS011;21086;44.780;17.194;2022-09-20T07:30:55;4.40;;;1.30;;
34876;SDS011;21086;44.780;17.194;2022-09-20T07:33:22;2.28;;;1.33;;
34876;SDS011;21086;44.780;17.194;2022-09-20T07:35:50;2.15;;;1.55;;
34876;SDS011;21086;44.780;17.194;2022-09-20T07:38:20;1.25;;;1.08;;
34876;SDS011;21086;44.780;17.194;2022-09-20T07:40:54;2.08;;;1.35;;
34876;SDS011;21086;44.780;17.194;2022-09-20T07:43:23;1.17;;;0.98;;
34876;SDS011;21086;44.780;17.194;2022-09-20T07:45:52;1.52;;;1.10;;
34876;SDS011;21086;44.780;17.194;2022-09-20T07:48:21;3.05;;;1.10;;
34876;SDS011;21086;44.780;17.194;2022-09-20T07:50:50;2.90;;;1.20;;
34876;SDS011;21086;44.780;17.194;2022-09-20T07:53:22;5.32;;;1.35;;
34876;SDS011;21086;44.780;17.194;2022-09-20T07:55:59;1.55;;;1.08;;
34876;SDS011;21086;44.780;17.194;2022-09-20T07:58:28;2.30;;;0.85;;
34876;SDS011;21086;44.780;17.194;2022-09-20T08:00:57;2.50;;;1.30;;
34876;SDS011;21086;44.780;17.194;2022-09-20T08:03:25;3.75;;;1.60;;
34876;SDS011;21086;44.780;17.194;2022-09-20T08:05:58;3.85;;;1.33;;
34876;SDS011;21086;44.780;17.194;2022-09-20T08:08:26;2.78;;;1.30;;
34876;SDS011;21086;44.780;17.194;2022-09-20T08:11:01;2.25;;;1.15;;
34876;SDS011;21086;44.780;17.194;2022-09-20T08:13:38;3.05;;;1.38;;
34876;SDS011;21086;44.780;17.194;2022-09-20T08:16:28;1.90;;;1.10;;
34876;SDS011;21086;44.780;17.194;2022-09-20T08:18:57;1.30;;;0.90;;
34876;SDS011;21086;44.780;17.194;2022-09-20T08:21:26;1.50;;;0.85;;
34876;SDS011;21086;44.780;17.194;2022-09-20T08:23:57;2.03;;;0.93;;
34876;SDS011;21086;44.780;17.194;2022-09-20T08:26:25;5.30;;;1.38;;
34876;SDS011;21086;44.780;17.194;2022-09-20T08:28:55;2.38;;;1.30;;
34876;SDS011;21086;44.780;17.194;2022-09-20T08:31:24;1.70;;;0.95;;
34876;SDS011;21086;44.780;17.194;2022-09-20T08:33:53;1.05;;;0.75;;
34876;SDS011;21086;44.780;17.194;2022-09-20T08:36:21;3.22;;;1.00;;
34876;SDS011;21086;44.780;17.194;2022-09-20T08:38:50;1.70;;;1.23;;
34876;SDS011;21086;44.780;17.194;2022-09-20T08:41:46;1.15;;;0.85;;
34876;SDS011;21086;44.780;17.194;2022-09-20T08:44:15;1.70;;;1.20;;
34876;SDS011;21086;44.780;17.194;2022-09-20T08:47:18;1.42;;;0.60;;
34876;SDS011;21086;44.780;17.194;2022-09-20T08:49:48;2.03;;;0.70;;
34876;SDS011;21086;44.780;17.194;2022-09-20T08:52:29;1.88;;;0.80;;
34876;SDS011;21086;44.780;17.194;2022-09-20T08:55:24;1.48;;;0.95;;
34876;SDS011;21086;44.780;17.194;2022-09-20T08:57:54;0.70;;;0.52;;
34876;SDS011;21086;44.780;17.194;2022-09-20T09:00:24;1.58;;;0.50;;
34876;SDS011;21086;44.780;17.194;2022-09-20T09:03:00;1.50;;;0.70;;
34876;SDS011;21086;44.780;17.194;2022-09-20T09:05:35;1.27;;;0.75;;
34876;SDS011;21086;44.780;17.194;2022-09-20T09:08:09;1.27;;;0.98;;
34876;SDS011;21086;44.780;17.194;2022-09-20T09:10:46;4.60;;;1.13;;
34876;SDS011;21086;44.780;17.194;2022-09-20T09:16:00;1.45;;;0.63;;
34876;SDS011;21086;44.780;17.194;2022-09-20T09:18:36;2.05;;;1.48;;
34876;SDS011;21086;44.780;17.194;2022-09-20T09:21:06;1.90;;;0.38;;
34876;SDS011;21086;44.780;17.194;2022-09-20T09:23:38;0.95;;;0.65;;
34876;SDS011;21086;44.780;17.194;2022-09-20T09:26:14;1.45;;;0.60;;
34876;SDS011;21086;44.780;17.194;2022-09-20T09:28:43;4.45;;;0.60;;
34876;SDS011;21086;44.780;17.194;2022-09-20T09:31:16;1.10;;;0.63;;
34876;SDS011;21086;44.780;17.194;2022-09-20T09:33:53;1.63;;;0.98;;
34876;SDS011;21086;44.780;17.194;2022-09-20T09:36:22;2.15;;;1.33;;
34876;SDS011;21086;44.780;17.194;2022-09-20T09:39:11;0.98;;;0.50;;
34876;SDS011;21086;44.780;17.194;2022-09-20T09:41:42;1.95;;;0.40;;
34876;SDS011;21086;44.780;17.194;2022-09-20T09:46:47;1.75;;;1.13;;
34876;SDS011;21086;44.780;17.194;2022-09-20T09:49:26;0.40;;;0.40;;
34876;SDS011;21086;44.780;17.194;2022-09-20T09:52:10;1.23;;;0.55;;
34876;SDS011;21086;44.780;17.194;2022-09-20T09:54:50;2.47;;;0.95;;
34876;SDS011;21086;44.780;17.194;2022-09-20T09:57:50;2.47;;;1.92;;
34876;SDS011;21086;44.780;17.194;2022-09-20T10:00:41;1.10;;;0.60;;
34876;SDS011;21086;44.780;17.194;2022-09-20T10:03:18;4.05;;;3.03;;
34876;SDS011;21086;44.780;17.194;2022-09-20T10:06:17;3.45;;;2.25;;
34876;SDS011;21086;44.780;17.194;2022-09-20T10:17:57;6.53;;;2.33;;
34876;SDS011;21086;44.780;17.194;2022-09-20T10:40:25;2.47;;;2.00;;
34876;SDS011;21086;44.780;17.194;2022-09-20T10:43:48;0.20;;;0.10;;
34876;SDS011;21086;44.780;17.194;2022-09-20T10:49:10;2.78;;;0.10;;
34876;SDS011;21086;44.780;17.194;2022-09-20T10:51:45;0.73;;;0.50;;
34876;SDS011;21086;44.780;17.194;2022-09-20T10:54:33;1.10;;;0.63;;
34876;SDS011;21086;44.780;17.194;2022-09-20T11:00:02;0.70;;;0.30;;
34876;SDS011;21086;44.780;17.194;2022-09-20T11:08:26;0.57;;;0.57;;
34876;SDS011;21086;44.780;17.194;2022-09-20T11:11:17;0.57;;;0.52;;
34876;SDS011;21086;44.780;17.194;2022-09-20T11:14:05;1.60;;;1.27;;
34876;SDS011;21086;44.780;17.194;2022-09-20T11:19:43;3.03;;;1.00;;
34876;SDS011;21086;44.780;17.194;2022-09-20T11:22:21;0.82;;;0.55;;
34876;SDS011;21086;44.780;17.194;2022-09-20T11:24:56;0.63;;;0.50;;
34876;SDS011;21086;44.780;17.194;2022-09-20T11:30:16;2.13;;;0.50;;
34876;SDS011;21086;44.780;17.194;2022-09-20T11:35:47;0.60;;;0.30;;
34876;SDS011;21086;44.780;17.194;2022-09-20T11:38:21;0.80;;;0.68;;
34876;SDS011;21086;44.780;17.194;2022-09-20T11:41:10;0.90;;;0.70;;
34876;SDS011;21086;44.780;17.194;2022-09-20T11:43:44;0.60;;;0.50;;
34876;SDS011;21086;44.780;17.194;2022-09-20T11:46:15;2.55;;;0.82;;
34876;SDS011;21086;44.780;17.194;2022-09-20T11:48:52;1.52;;;0.93;;
34876;SDS011;21086;44.780;17.194;2022-09-20T11:54:39;1.80;;;1.00;;
34876;SDS011;21086;44.780;17.194;2022-09-20T11:57:17;1.85;;;0.90;;
34876;SDS011;21086;44.780;17.194;2022-09-20T11:59:51;0.85;;;0.70;;
34876;SDS011;21086;44.780;17.194;2022-09-20T12:02:22;1.50;;;0.38;;
34876;SDS011;21086;44.780;17.194;2022-09-20T12:04:59;1.83;;;0.70;;
34876;SDS011;21086;44.780;17.194;2022-09-20T12:10:04;0.20;;;0.20;;
34876;SDS011;21086;44.780;17.194;2022-09-20T12:12:45;1.05;;;0.20;;
34876;SDS011;21086;44.780;17.194;2022-09-20T12:28:50;0.47;;;0.40;;
34876;SDS011;21086;44.780;17.194;2022-09-20T12:39:20;1.13;;;0.30;;
34876;SDS011;21086;44.780;17.194;2022-09-20T12:41:59;0.73;;;0.55;;
34876;SDS011;21086;44.780;17.194;2022-09-20T12:44:41;0.40;;;0.38;;
34876;SDS011;21086;44.780;17.194;2022-09-20T12:49:49;0.30;;;0.30;;
34876;SDS011;21086;44.780;17.194;2022-09-20T13:06:22;1.23;;;0.60;;
34876;SDS011;21086;44.780;17.194;2022-09-20T13:11:18;0.60;;;0.30;;
34876;SDS011;21086;44.780;17.194;2022-09-20T13:14:02;0.95;;;0.20;;
34876;SDS011;21086;44.780;17.194;2022-09-20T13:16:48;0.40;;;0.20;;
34876;SDS011;21086;44.780;17.194;2022-09-20T13:19:23;0.50;;;0.30;;
34876;SDS011;21086;44.780;17.194;2022-09-20T13:24:26;0.13;;;0.10;;
34876;SDS011;21086;44.780;17.194;2022-09-20T13:26:58;0.28;;;0.20;;
34876;SDS011;21086;44.780;17.194;2022-09-20T13:29:32;0.77;;;0.35;;
34876;SDS011;21086;44.780;17.194;2022-09-20T13:37:36;0.75;;;0.60;;
34876;SDS011;21086;44.780;17.194;2022-09-20T13:40:05;0.80;;;0.40;;
34876;SDS011;21086;44.780;17.194;2022-09-20T13:42:32;1.05;;;0.40;;
34876;SDS011;21086;44.780;17.194;2022-09-20T13:45:01;2.92;;;1.30;;
34876;SDS011;21086;44.780;17.194;2022-09-20T13:47:30;1.98;;;1.05;;
34876;SDS011;21086;44.780;17.194;2022-09-20T13:49:58;1.75;;;1.17;;
34876;SDS011;21086;44.780;17.194;2022-09-20T13:52:47;1.40;;;0.80;;
34876;SDS011;21086;44.780;17.194;2022-09-20T13:55:32;3.40;;;0.70;;
34876;SDS011;21086;44.780;17.194;2022-09-20T13:58:03;1.40;;;1.00;;
34876;SDS011;21086;44.780;17.194;2022-09-20T14:00:53;2.13;;;1.15;;
34876;SDS011;21086;44.780;17.194;2022-09-20T14:03:26;0.90;;;0.60;;
34876;SDS011;21086;44.780;17.194;2022-09-20T14:05:57;1.08;;;0.73;;
34876;SDS011;21086;44.780;17.194;2022-09-20T14:08:27;4.25;;;1.40;;
34876;SDS011;21086;44.780;17.194;2022-09-20T14:13:42;1.70;;;1.10;;
34876;SDS011;21086;44.780;17.194;2022-09-20T14:16:13;1.35;;;0.90;;
34876;SDS011;21086;44.780;17.194;2022-09-20T14:18:43;1.60;;;0.82;;
34876;SDS011;21086;44.780;17.194;2022-09-20T14:21:16;1.25;;;0.90;;
34876;SDS011;21086;44.780;17.194;2022-09-20T14:26:26;1.30;;;0.60;;
34876;SDS011;21086;44.780;17.194;2022-09-20T14:32:00;1.25;;;0.80;;
34876;SDS011;21086;44.780;17.194;2022-09-20T14:34:35;4.05;;;1.38;;
34876;SDS011;21086;44.780;17.194;2022-09-20T14:37:10;7.00;;;2.25;;
34876;SDS011;21086;44.780;17.194;2022-09-20T14:39:45;3.55;;;1.75;;
34876;SDS011;21086;44.780;17.194;2022-09-20T14:42:39;2.75;;;1.88;;
34876;SDS011;21086;44.780;17.194;2022-09-20T14:50:41;1.55;;;1.00;;
34876;SDS011;21086;44.780;17.194;2022-09-20T14:55:37;2.35;;;1.08;;
34876;SDS011;21086;44.780;17.194;2022-09-20T14:58:10;1.27;;;0.80;;
34876;SDS011;21086;44.780;17.194;2022-09-20T15:00:50;0.68;;;0.50;;
34876;SDS011;21086;44.780;17.194;2022-09-20T15:03:39;1.02;;;0.63;;
34876;SDS011;21086;44.780;17.194;2022-09-20T15:06:10;1.83;;;0.80;;
34876;SDS011;21086;44.780;17.194;2022-09-20T15:08:38;0.75;;;0.47;;
34876;SDS011;21086;44.780;17.194;2022-09-20T15:11:12;1.13;;;0.63;;
34876;SDS011;21086;44.780;17.194;2022-09-20T15:13:40;1.40;;;0.75;;
34876;SDS011;21086;44.780;17.194;2022-09-20T15:16:07;2.45;;;1.10;;
34876;SDS011;21086;44.780;17.194;2022-09-20T15:18:38;1.58;;;1.15;;
34876;SDS011;21086;44.780;17.194;2022-09-20T15:21:07;3.05;;;1.58;;
34876;SDS011;21086;44.780;17.194;2022-09-20T15:23:37;11.88;;;1.85;;
34876;SDS011;21086;44.780;17.194;2022-09-20T15:26:05;2.13;;;1.33;;
34876;SDS011;21086;44.780;17.194;2022-09-20T15:28:34;2.60;;;1.52;;
34876;SDS011;21086;44.780;17.194;2022-09-20T15:31:00;3.50;;;1.92;;
34876;SDS011;21086;44.780;17.194;2022-09-20T15:33:28;3.90;;;2.50;;
34876;SDS011;21086;44.780;17.194;2022-09-20T15:35:57;3.20;;;1.00;;
34876;SDS011;21086;44.780;17.194;2022-09-20T15:38:24;1.42;;;0.70;;
34876;SDS011;21086;44.780;17.194;2022-09-20T15:40:52;2.47;;;1.13;;
34876;SDS011;21086;44.780;17.194;2022-09-20T15:43:20;3.97;;;1.73;;
34876;SDS011;21086;44.780;17.194;2022-09-20T15:45:52;2.45;;;1.63;;
34876;SDS011;21086;44.780;17.194;2022-09-20T15:48:22;3.75;;;1.70;;
34876;SDS011;21086;44.780;17.194;2022-09-20T15:53:30;2.63;;;1.25;;
34876;SDS011;21086;44.780;17.194;2022-09-20T15:55:59;2.50;;;1.17;;
34876;SDS011;21086;44.780;17.194;2022-09-20T15:58:31;5.43;;;1.15;;
34876;SDS011;21086;44.780;17.194;2022-09-20T16:01:05;5.35;;;1.00;;
34876;SDS011;21086;44.780;17.194;2022-09-20T16:03:34;3.90;;;1.73;;
34876;SDS011;21086;44.780;17.194;2022-09-20T16:06:03;1.95;;;1.30;;
34876;SDS011;21086;44.780;17.194;2022-09-20T16:08:32;1.65;;;1.50;;
34876;SDS011;21086;44.780;17.194;2022-09-20T16:11:00;2.50;;;2.00;;
34876;SDS011;21086;44.780;17.194;2022-09-20T16:13:27;4.32;;;2.63;;
34876;SDS011;21086;44.780;17.194;2022-09-20T16:15:55;5.90;;;2.50;;
34876;SDS011;21086;44.780;17.194;2022-09-20T16:18:26;4.47;;;3.70;;
34876;SDS011;21086;44.780;17.194;2022-09-20T16:21:13;2.78;;;2.13;;
34876;SDS011;21086;44.780;17.194;2022-09-20T16:23:44;5.10;;;2.10;;
34876;SDS011;21086;44.780;17.194;2022-09-20T16:26:13;6.93;;;1.60;;
34876;SDS011;21086;44.780;17.194;2022-09-20T16:28:41;4.45;;;1.75;;
34876;SDS011;21086;44.780;17.194;2022-09-20T16:34:18;3.08;;;1.60;;
34876;SDS011;21086;44.780;17.194;2022-09-20T16:36:51;3.40;;;2.08;;
34876;SDS011;21086;44.780;17.194;2022-09-20T16:39:19;2.55;;;1.45;;
34876;SDS011;21086;44.780;17.194;2022-09-20T16:41:51;3.60;;;1.30;;
34876;SDS011;21086;44.780;17.194;2022-09-20T16:44:19;2.47;;;1.10;;
34876;SDS011;21086;44.780;17.194;2022-09-20T16:46:46;2.30;;;1.15;;
34876;SDS011;21086;44.780;17.194;2022-09-20T16:49:13;4.05;;;1.52;;
34876;SDS011;21086;44.780;17.194;2022-09-20T16:51:42;2.28;;;1.48;;
34876;SDS011;21086;44.780;17.194;2022-09-20T16:54:12;7.43;;;2.33;;
34876;SDS011;21086;44.780;17.194;2022-09-20T16:56:43;2.08;;;1.50;;
34876;SDS011;21086;44.780;17.194;2022-09-20T16:59:12;4.72;;;1.75;;
34876;SDS011;21086;44.780;17.194;2022-09-20T17:01:41;3.05;;;1.80;;
34876;SDS011;21086;44.780;17.194;2022-09-20T17:04:09;5.88;;;2.83;;
34876;SDS011;21086;44.780;17.194;2022-09-20T17:06:39;5.70;;;3.45;;
34876;SDS011;21086;44.780;17.194;2022-09-20T17:09:08;3.70;;;1.90;;
34876;SDS011;21086;44.780;17.194;2022-09-20T17:11:37;5.13;;;2.80;;
34876;SDS011;21086;44.780;17.194;2022-09-20T17:14:05;4.47;;;2.90;;
34876;SDS011;21086;44.780;17.194;2022-09-20T17:16:35;9.98;;;3.60;;
34876;SDS011;21086;44.780;17.194;2022-09-20T17:19:04;7.05;;;4.50;;
34876;SDS011;21086;44.780;17.194;2022-09-20T17:21:35;5.35;;;3.50;;
34876;SDS011;21086;44.780;17.194;2022-09-20T17:24:10;11.85;;;4.38;;
34876;SDS011;21086;44.780;17.194;2022-09-20T17:26:39;9.13;;;6.78;;
34876;SDS011;21086;44.780;17.194;2022-09-20T17:29:10;11.88;;;6.63;;
34876;SDS011;21086;44.780;17.194;2022-09-20T17:31:40;7.95;;;5.35;;
34876;SDS011;21086;44.780;17.194;2022-09-20T17:34:10;11.65;;;4.50;;
34876;SDS011;21086;44.780;17.194;2022-09-20T17:36:39;8.10;;;4.43;;
34876;SDS011;21086;44.780;17.194;2022-09-20T17:39:08;8.60;;;4.65;;
34876;SDS011;21086;44.780;17.194;2022-09-20T17:41:38;6.70;;;4.05;;
34876;SDS011;21086;44.780;17.194;2022-09-20T17:44:06;6.75;;;4.20;;
34876;SDS011;21086;44.780;17.194;2022-09-20T17:46:38;6.18;;;4.13;;
34876;SDS011;21086;44.780;17.194;2022-09-20T17:49:07;4.25;;;2.80;;
34876;SDS011;21086;44.780;17.194;2022-09-20T17:51:39;4.45;;;2.78;;
34876;SDS011;21086;44.780;17.194;2022-09-20T17:54:08;6.20;;;2.80;;
34876;SDS011;21086;44.780;17.194;2022-09-20T17:56:40;4.18;;;2.45;;
34876;SDS011;21086;44.780;17.194;2022-09-20T17:59:09;8.63;;;3.08;;
34876;SDS011;21086;44.780;17.194;2022-09-20T18:01:37;2.60;;;1.50;;
34876;SDS011;21086;44.780;17.194;2022-09-20T18:04:06;2.70;;;1.67;;
34876;SDS011;21086;44.780;17.194;2022-09-20T18:06:38;2.78;;;1.40;;
34876;SDS011;21086;44.780;17.194;2022-09-20T18:09:12;3.05;;;1.77;;
34876;SDS011;21086;44.780;17.194;2022-09-20T18:11:44;2.67;;;1.58;;
34876;SDS011;21086;44.780;17.194;2022-09-20T18:14:16;3.78;;;1.92;;
34876;SDS011;21086;44.780;17.194;2022-09-20T18:16:44;3.55;;;1.60;;
34876;SDS011;21086;44.780;17.194;2022-09-20T18:19:12;2.65;;;1.42;;
34876;SDS011;21086;44.780;17.194;2022-09-20T18:21:42;3.42;;;1.70;;
34876;SDS011;21086;44.780;17.194;2022-09-20T18:24:10;2.22;;;1.55;;
34876;SDS011;21086;44.780;17.194;2022-09-20T18:26:37;1.92;;;1.17;;
34876;SDS011;21086;44.780;17.194;2022-09-20T18:29:06;4.05;;;1.38;;
34876;SDS011;21086;44.780;17.194;2022-09-20T18:31:47;2.47;;;1.13;;
34876;SDS011;21086;44.780;17.194;2022-09-20T18:34:20;7.40;;;1.50;;
34876;SDS011;21086;44.780;17.194;2022-09-20T18:36:52;3.55;;;1.52;;
34876;SDS011;21086;44.780;17.194;2022-09-20T18:39:27;2.03;;;1.20;;
34876;SDS011;21086;44.780;17.194;2022-09-20T18:41:57;3.05;;;1.48;;
34876;SDS011;21086;44.780;17.194;2022-09-20T18:44:25;5.07;;;2.25;;
34876;SDS011;21086;44.780;17.194;2022-09-20T18:46:53;3.85;;;2.03;;
34876;SDS011;21086;44.780;17.194;2022-09-20T18:49:20;5.38;;;2.70;;
34876;SDS011;21086;44.780;17.194;2022-09-20T18:51:47;3.90;;;2.38;;
34876;SDS011;21086;44.780;17.194;2022-09-20T18:54:15;4.25;;;2.15;;
34876;SDS011;21086;44.780;17.194;2022-09-20T18:56:44;6.03;;;2.38;;
34876;SDS011;21086;44.780;17.194;2022-09-20T18:59:17;5.80;;;3.20;;
34876;SDS011;21086;44.780;17.194;2022-09-20T19:04:32;4.68;;;3.22;;
34876;SDS011;21086;44.780;17.194;2022-09-20T19:21:27;6.65;;;3.85;;
34876;SDS011;21086;44.780;17.194;2022-09-20T19:26:35;11.40;;;7.43;;
34876;SDS011;21086;44.780;17.194;2022-09-20T19:29:16;13.55;;;3.53;;
34876;SDS011;21086;44.780;17.194;2022-09-20T19:31:48;8.90;;;3.25;;
34876;SDS011;21086;44.780;17.194;2022-09-20T19:34:19;7.75;;;3.53;;
34876;SDS011;21086;44.780;17.194;2022-09-20T19:36:56;7.80;;;3.08;;
34876;SDS011;21086;44.780;17.194;2022-09-20T19:45:12;5.97;;;3.53;;
34876;SDS011;21086;44.780;17.194;2022-09-20T19:51:03;3.88;;;2.72;;
34876;SDS011;21086;44.780;17.194;2022-09-20T19:53:33;9.13;;;3.85;;
34876;SDS011;21086;44.780;17.194;2022-09-20T19:56:02;11.05;;;3.72;;
34876;SDS011;21086;44.780;17.194;2022-09-20T19:58:39;7.38;;;3.90;;
34876;SDS011;21086;44.780;17.194;2022-09-20T20:01:08;9.27;;;3.95;;
34876;SDS011;21086;44.780;17.194;2022-09-20T20:03:35;7.90;;;5.05;;
34876;SDS011;21086;44.780;17.194;2022-09-20T20:06:05;6.82;;;3.95;;
34876;SDS011;21086;44.780;17.194;2022-09-20T20:08:43;10.32;;;5.55;;
34876;SDS011;21086;44.780;17.194;2022-09-20T20:14:46;7.65;;;3.67;;
34876;SDS011;21086;44.780;17.194;2022-09-20T20:28:25;3.70;;;1.60;;
34876;SDS011;21086;44.780;17.194;2022-09-20T20:30:52;3.05;;;1.83;;
34876;SDS011;21086;44.780;17.194;2022-09-20T20:33:25;3.85;;;1.60;;
34876;SDS011;21086;44.780;17.194;2022-09-20T20:35:53;3.67;;;1.80;;
34876;SDS011;21086;44.780;17.194;2022-09-20T20:38:21;3.40;;;1.65;;
34876;SDS011;21086;44.780;17.194;2022-09-20T20:41:01;9.77;;;1.55;;
34876;SDS011;21086;44.780;17.194;2022-09-20T20:43:31;16.58;;;3.95;;
34876;SDS011;21086;44.780;17.194;2022-09-20T20:46:04;9.35;;;1.73;;
34876;SDS011;21086;44.780;17.194;2022-09-20T20:48:32;7.63;;;1.75;;
34876;SDS011;21086;44.780;17.194;2022-09-20T20:51:07;9.25;;;1.77;;
34876;SDS011;21086;44.780;17.194;2022-09-20T20:53:36;5.78;;;1.30;;
34876;SDS011;21086;44.780;17.194;2022-09-20T20:56:05;6.93;;;1.42;;
34876;SDS011;21086;44.780;17.194;2022-09-20T20:58:35;2.38;;;1.30;;
34876;SDS011;21086;44.780;17.194;2022-09-20T21:01:10;7.63;;;1.48;;